Time;durP1;ratioP1;P1;durP2;ratioP2;P2;SDS_P1;SDS_P2;PMS_P1;PMS_P2;Temp;Humidity;BMP_temperature;BMP_pressure;BME280_temperature;BME280_humidity;BME280_pressure;Samples;Min_cycle;Max_cycle;Signal;HPM_P1;HPM_P2
2021/05/02 00:00:41;;;;;;;66.57;51.83;;;8.60;99.90;;;;;;5097447;28;20051;-83
2021/05/02 00:03:08;;;;;;;67.32;51.75;;;8.50;99.90;;;;;;5097087;28;20054;-83
2021/05/02 00:05:36;;;;;;;69.80;53.15;;;8.60;99.90;;;;;;5097471;28;20131;-81
2021/05/02 00:08:04;;;;;;;70.43;54.03;;;8.50;99.90;;;;;;5097550;28;20058;-81
2021/05/02 00:10:31;;;;;;;77.30;55.03;;;8.50;99.90;;;;;;5097055;28;20047;-82
2021/05/02 00:12:59;;;;;;;74.05;56.85;;;8.50;99.90;;;;;;5096764;28;20051;-81
2021/05/02 00:15:27;;;;;;;69.88;52.80;;;8.40;99.90;;;;;;5097551;28;20082;-81
2021/05/02 00:17:56;;;;;;;74.00;55.42;;;8.40;99.90;;;;;;5116052;28;20142;-82
2021/05/02 00:20:23;;;;;;;78.20;57.22;;;8.40;99.90;;;;;;5098598;28;20129;-82
2021/05/02 00:22:52;;;;;;;82.15;59.20;;;8.40;99.90;;;;;;5115827;28;20075;-82
2021/05/02 00:25:24;;;;;;;75.90;56.50;;;8.40;99.90;;;;;;5097800;28;20067;-82
2021/05/02 00:27:51;;;;;;;87.10;59.70;;;8.40;99.90;;;;;;5098472;28;20093;-81
2021/05/02 00:30:23;;;;;;;75.57;56.15;;;8.40;99.90;;;;;;5098622;28;20335;-81
2021/05/02 00:32:51;;;;;;;71.22;54.08;;;8.40;99.90;;;;;;5116252;28;20130;-82
2021/05/02 00:35:20;;;;;;;76.45;55.60;;;8.40;99.90;;;;;;5097645;28;20052;-82
2021/05/02 00:37:47;;;;;;;80.82;56.97;;;8.40;99.90;;;;;;5098113;28;20097;-80
2021/05/02 00:40:36;;;;;;;78.32;58.33;;;8.40;99.90;;;;;;5113602;28;20047;-79
2021/05/02 00:43:18;;;;;;;68.38;51.42;;;8.40;99.90;;;;;;5082802;28;20104;-80
2021/05/02 00:45:57;;;;;;;80.10;57.20;;;8.40;99.90;;;;;;5095310;28;20075;-80
2021/05/02 00:48:30;;;;;;;81.38;56.20;;;8.30;99.90;;;;;;5095468;28;20101;-80
2021/05/02 00:51:03;;;;;;;77.57;55.05;;;8.30;99.90;;;;;;5095453;28;20067;-80
2021/05/02 00:53:46;;;;;;;79.90;57.92;;;8.30;99.90;;;;;;5098713;28;20498;-79
2021/05/02 00:56:25;;;;;;;78.82;54.78;;;8.30;99.90;;;;;;5117482;28;20126;-79
2021/05/02 00:58:58;;;;;;;80.10;54.85;;;8.30;99.90;;;;;;5099035;28;20079;-79
2021/05/02 01:01:24;;;;;;;71.53;53.30;;;8.30;99.90;;;;;;5117071;28;20075;-79
2021/05/02 01:03:51;;;;;;;74.57;52.17;;;8.30;99.90;;;;;;5118163;28;20090;-80
2021/05/02 01:06:23;;;;;;;75.57;52.72;;;8.30;99.90;;;;;;5099221;28;20126;-80
2021/05/02 01:08:51;;;;;;;83.80;56.35;;;8.30;99.90;;;;;;5099659;28;20143;-80
2021/05/02 01:11:18;;;;;;;69.43;50.80;;;8.30;99.90;;;;;;5099375;28;20109;-81
2021/05/02 01:13:59;;;;;;;77.00;52.70;;;8.30;99.90;;;;;;5100557;28;20078;-81
2021/05/02 01:16:29;;;;;;;75.68;52.75;;;8.30;99.90;;;;;;5119745;28;20494;-81
2021/05/02 01:18:56;;;;;;;71.07;48.70;;;8.30;99.90;;;;;;5099794;28;20054;-81
2021/05/02 01:21:36;;;;;;;71.55;47.30;;;8.30;99.90;;;;;;5100504;28;20069;-81
2021/05/02 01:24:03;;;;;;;72.30;49.58;;;8.30;99.90;;;;;;5120182;28;20043;-81
2021/05/02 01:26:30;;;;;;;71.85;49.92;;;8.30;99.90;;;;;;5100524;28;20051;-81
2021/05/02 01:28:57;;;;;;;72.13;49.78;;;8.20;99.90;;;;;;5099032;28;20080;-83
2021/05/02 01:31:27;;;;;;;73.43;50.75;;;8.20;99.90;;;;;;5098836;28;20418;-85
2021/05/02 01:33:54;;;;;;;70.40;48.72;;;8.10;99.90;;;;;;5099295;28;20051;-85
2021/05/02 01:36:21;;;;;;;71.72;49.75;;;8.10;99.90;;;;;;5099174;28;20418;-84
2021/05/02 01:38:49;;;;;;;70.07;48.63;;;8.10;99.90;;;;;;5098182;28;20134;-84
2021/05/02 01:41:16;;;;;;;71.40;47.83;;;8.00;99.90;;;;;;5098154;28;20108;-85
2021/05/02 01:43:43;;;;;;;67.50;46.30;;;8.00;99.90;;;;;;5098302;28;20195;-85
2021/05/02 01:46:13;;;;;;;61.65;43.95;;;8.10;99.90;;;;;;5115958;28;20101;-84
2021/05/02 01:48:40;;;;;;;59.92;42.25;;;8.10;99.90;;;;;;5115797;28;20092;-86
2021/05/02 01:51:09;;;;;;;53.13;39.35;;;8.10;99.90;;;;;;5097876;28;20134;-85
2021/05/02 01:53:37;;;;;;;58.17;40.03;;;8.10;99.90;;;;;;5115595;28;20051;-85
2021/05/02 01:56:04;;;;;;;56.97;40.67;;;8.10;99.90;;;;;;5098219;28;20083;-84
2021/05/02 01:58:34;;;;;;;55.70;40.20;;;8.10;99.90;;;;;;5098546;28;20418;-85
2021/05/02 02:01:07;;;;;;;56.28;40.45;;;8.10;99.90;;;;;;5098488;28;20151;-86
2021/05/02 02:03:34;;;;;;;;;;;8.00;99.90;;;;;;5098693;28;20078;-86
2021/05/02 02:06:01;;;;;;;62.25;40.40;;;8.00;99.90;;;;;;5098463;28;19919;-86
2021/05/02 02:08:28;;;;;;;55.35;38.53;;;8.00;99.90;;;;;;5098632;28;20059;-86
2021/05/02 02:10:54;;;;;;;63.38;40.22;;;8.00;99.90;;;;;;5098429;28;20082;-86
2021/05/02 02:13:21;;;;;;;54.35;37.45;;;8.00;99.90;;;;;;5116098;28;20091;-85
2021/05/02 02:15:48;;;;;;;52.40;36.05;;;8.00;99.90;;;;;;5097821;28;20093;-85
2021/05/02 02:18:16;;;;;;;44.25;32.55;;;8.00;99.90;;;;;;5097654;28;20112;-86
2021/05/02 02:20:46;;;;;;;41.65;30.75;;;7.90;99.90;;;;;;5115326;28;20135;-85
2021/05/02 02:23:17;;;;;;;40.83;29.67;;;8.00;99.90;;;;;;5097403;28;20109;-85
2021/05/02 02:25:46;;;;;;;41.30;28.70;;;8.00;99.90;;;;;;5097191;28;20048;-85
2021/05/02 02:28:15;;;;;;;42.53;28.95;;;8.00;99.90;;;;;;5115047;28;20503;-85
2021/05/02 02:30:45;;;;;;;50.42;29.85;;;8.00;99.90;;;;;;5096817;28;20104;-85
2021/05/02 02:33:12;;;;;;;81.07;30.83;;;8.00;99.90;;;;;;5097042;28;20079;-85
2021/05/02 02:35:48;;;;;;;78.20;29.20;;;8.00;99.90;;;;;;5096694;28;20079;-84
2021/05/02 02:38:19;;;;;;;59.88;29.05;;;8.00;99.90;;;;;;5097559;28;20097;-85
2021/05/02 02:40:49;;;;;;;41.63;25.20;;;8.10;99.90;;;;;;5097389;28;20085;-85
2021/05/02 02:43:29;;;;;;;32.28;23.95;;;8.10;99.90;;;;;;5097620;28;20082;-86
2021/05/02 02:45:58;;;;;;;38.03;24.35;;;8.00;99.90;;;;;;5097671;28;20071;-84
2021/05/02 02:48:27;;;;;;;33.47;23.70;;;8.00;99.90;;;;;;5115602;28;20126;-85
2021/05/02 02:51:02;;;;;;;30.40;23.02;;;8.00;99.90;;;;;;5097270;28;20147;-86
2021/05/02 02:53:31;;;;;;;28.85;22.17;;;8.00;99.90;;;;;;5097381;28;20126;-85
2021/05/02 02:56:03;;;;;;;27.73;21.70;;;8.00;99.90;;;;;;5115319;28;20112;-86
2021/05/02 02:58:34;;;;;;;31.00;21.27;;;7.90;99.90;;;;;;5115154;28;20503;-85
2021/05/02 03:01:04;;;;;;;36.60;21.48;;;7.90;99.90;;;;;;5097393;28;20053;-85
2021/05/02 03:03:31;;;;;;;29.55;18.80;;;7.80;99.90;;;;;;5115258;28;20051;-86
2021/05/02 03:06:00;;;;;;;25.80;17.40;;;7.90;99.90;;;;;;5096970;28;20103;-86
2021/05/02 03:08:29;;;;;;;27.65;18.60;;;7.90;99.90;;;;;;5096509;28;20085;-85
2021/05/02 03:10:56;;;;;;;22.13;15.93;;;7.80;99.90;;;;;;5096618;28;20510;-84
2021/05/02 03:13:22;;;;;;;19.35;15.38;;;7.80;99.90;;;;;;5096248;28;20104;-85
2021/05/02 03:15:49;;;;;;;16.77;13.90;;;7.90;99.90;;;;;;5096124;28;20085;-85
2021/05/02 03:18:26;;;;;;;18.23;14.95;;;7.90;99.90;;;;;;5117132;28;20491;-85
2021/05/02 03:21:05;;;;;;;20.92;15.00;;;7.80;99.90;;;;;;5098818;28;20071;-86
2021/05/02 03:23:37;;;;;;;20.15;15.55;;;7.80;99.90;;;;;;5098352;28;20105;-86
2021/05/02 03:26:06;;;;;;;19.10;15.35;;;7.70;99.90;;;;;;5117472;28;20078;-87
2021/05/02 03:28:42;;;;;;;20.55;16.45;;;7.70;99.90;;;;;;5098009;28;20083;-87
2021/05/02 03:31:11;;;;;;;22.00;15.63;;;7.70;99.90;;;;;;5116256;28;20154;-86
2021/05/02 03:33:46;;;;;;;20.58;14.93;;;7.70;99.90;;;;;;5097864;28;20047;-86
2021/05/02 03:36:17;;;;;;;19.77;14.60;;;7.70;99.90;;;;;;5116318;28;20087;-86
2021/05/02 03:38:49;;;;;;;18.08;14.27;;;7.70;99.90;;;;;;5116324;28;20130;-86
2021/05/02 03:41:17;;;;;;;18.20;14.32;;;7.70;99.90;;;;;;5098772;28;20048;-86
2021/05/02 03:43:47;;;;;;;15.23;12.75;;;7.70;99.90;;;;;;5097957;28;20066;-86
2021/05/02 03:46:23;;;;;;;17.35;13.85;;;7.70;99.90;;;;;;5097174;28;20048;-87
2021/05/02 03:48:52;;;;;;;16.05;13.50;;;7.60;99.90;;;;;;5097389;28;20051;-86
2021/05/02 03:51:19;;;;;;;18.25;14.18;;;7.60;99.90;;;;;;5097537;28;20048;-87
2021/05/02 03:53:46;;;;;;;19.30;15.15;;;7.60;99.90;;;;;;5098584;28;20500;-86
2021/05/02 03:56:27;;;;;;;18.67;13.73;;;7.60;99.90;;;;;;5098126;28;20051;-87
2021/05/02 03:58:53;;;;;;;31.92;14.32;;;7.70;99.90;;;;;;5098235;28;20507;-86
2021/05/02 04:01:20;;;;;;;17.48;13.93;;;7.60;99.90;;;;;;5099095;28;20043;-86
2021/05/02 04:03:46;;;;;;;16.88;13.27;;;7.60;99.90;;;;;;5099903;28;20086;-86
2021/05/02 04:06:13;;;;;;;16.08;12.32;;;7.60;99.90;;;;;;5099933;28;20071;-87
2021/05/02 04:08:39;;;;;;;14.18;12.05;;;7.60;99.90;;;;;;5098822;28;20073;-87
2021/05/02 04:11:05;;;;;;;25.20;12.95;;;7.60;99.90;;;;;;5097533;28;20181;-86
2021/05/02 04:13:31;;;;;;;21.83;12.38;;;7.60;99.90;;;;;;5115900;28;20497;-86
2021/05/02 04:15:57;;;;;;;14.95;11.90;;;7.60;99.90;;;;;;5097891;28;20043;-86
2021/05/02 04:18:31;;;;;;;19.80;12.48;;;7.60;99.90;;;;;;5097247;28;20082;-85
2021/05/02 04:20:58;;;;;;;17.80;11.52;;;7.60;99.90;;;;;;5095615;28;20097;-85
2021/05/02 04:23:24;;;;;;;14.10;10.80;;;7.60;99.90;;;;;;5095892;28;20097;-86
2021/05/02 04:25:50;;;;;;;13.65;10.90;;;7.60;99.90;;;;;;5097040;28;20090;-86
2021/05/02 04:28:17;;;;;;;11.65;9.98;;;7.60;99.90;;;;;;5102333;28;20078;-86
2021/05/02 04:30:43;;;;;;;14.70;11.98;;;7.60;99.90;;;;;;5101717;28;20086;-85
2021/05/02 04:33:09;;;;;;;17.08;12.18;;;7.50;99.90;;;;;;5099720;28;20391;-85
2021/05/02 04:35:35;;;;;;;16.23;12.65;;;7.40;99.90;;;;;;5100489;28;20071;-85
2021/05/02 04:38:01;;;;;;;16.23;13.98;;;7.40;99.90;;;;;;5103221;28;20082;-86
2021/05/02 04:40:28;;;;;;;18.60;15.00;;;7.30;99.90;;;;;;5103984;28;20452;-87
2021/05/02 04:42:54;;;;;;;19.77;15.05;;;7.20;99.90;;;;;;5123725;28;20146;-86
2021/05/02 04:45:20;;;;;;;24.70;17.88;;;7.10;99.90;;;;;;5103177;28;20087;-86
2021/05/02 04:47:47;;;;;;;23.80;17.67;;;7.00;99.90;;;;;;5105079;28;20065;-87
2021/05/02 04:50:13;;;;;;;26.13;18.35;;;7.00;99.90;;;;;;5106105;28;20044;-87
2021/05/02 04:52:40;;;;;;;28.33;20.55;;;6.90;99.90;;;;;;5104935;28;20131;-86
2021/05/02 04:55:07;;;;;;;26.52;20.30;;;6.90;99.90;;;;;;5104624;28;20075;-85
2021/05/02 04:57:33;;;;;;;26.88;20.75;;;6.90;99.90;;;;;;5103038;28;20522;-86
2021/05/02 04:59:59;;;;;;;30.13;21.85;;;6.90;99.90;;;;;;5100321;28;20100;-85
2021/05/02 05:02:26;;;;;;;29.92;22.52;;;6.80;99.90;;;;;;5100615;28;20044;-86
2021/05/02 05:04:52;;;;;;;32.60;23.65;;;6.70;99.90;;;;;;5101081;28;20090;-86
2021/05/02 05:07:18;;;;;;;31.52;25.33;;;6.70;99.90;;;;;;5118770;28;20096;-87
2021/05/02 05:09:44;;;;;;;39.17;27.00;;;6.70;99.90;;;;;;5100208;28;20139;-86
2021/05/02 05:12:11;;;;;;;37.35;26.48;;;6.60;99.90;;;;;;5100366;28;20139;-86
2021/05/02 05:14:37;;;;;;;41.63;28.25;;;6.50;99.90;;;;;;5117905;28;20047;-85
2021/05/02 05:17:03;;;;;;;36.92;26.38;;;6.50;99.90;;;;;;5100350;28;20104;-86
2021/05/02 05:19:30;;;;;;;37.33;27.17;;;6.60;99.90;;;;;;5100013;28;20043;-86
2021/05/02 05:21:57;;;;;;;38.28;27.77;;;6.50;99.90;;;;;;5099989;28;20077;-86
2021/05/02 05:24:23;;;;;;;40.33;28.55;;;6.50;99.90;;;;;;5118248;28;20486;-86
2021/05/02 05:26:49;;;;;;;41.47;29.50;;;6.50;99.90;;;;;;5099735;28;20066;-84
2021/05/02 05:29:17;;;;;;;210.32;36.20;;;6.40;99.90;;;;;;5101149;28;20094;-84
2021/05/02 05:31:45;;;;;;;90.75;31.95;;;6.50;99.90;;;;;;5101415;28;20077;-83
2021/05/02 05:34:11;;;;;;;133.32;32.63;;;6.50;99.90;;;;;;5119287;28;20047;-84
2021/05/02 05:36:37;;;;;;;50.60;31.33;;;6.50;99.90;;;;;;5099846;28;20533;-84
2021/05/02 05:39:04;;;;;;;45.72;30.65;;;6.60;99.90;;;;;;5109744;27;20072;-84
2021/05/02 05:41:30;;;;;;;45.90;31.33;;;6.60;99.90;;;;;;5116127;27;20043;-85
2021/05/02 05:43:56;;;;;;;44.90;30.92;;;6.70;99.90;;;;;;5134288;27;20050;-83
2021/05/02 05:46:23;;;;;;;46.58;32.38;;;6.70;99.90;;;;;;5130611;27;20111;-84
2021/05/02 05:48:49;;;;;;;51.58;32.10;;;6.70;99.90;;;;;;5117277;27;20051;-84
2021/05/02 05:51:15;;;;;;;44.42;31.98;;;6.60;99.90;;;;;;5137706;27;20051;-84
2021/05/02 05:53:42;;;;;;;48.88;32.35;;;6.60;99.90;;;;;;5121859;27;20116;-84
2021/05/02 05:56:08;;;;;;;53.17;34.38;;;6.50;99.90;;;;;;5120555;27;20080;-83
2021/05/02 05:58:35;;;;;;;47.72;32.13;;;6.60;99.90;;;;;;5124904;27;20122;-84
2021/05/02 06:01:02;;;;;;;41.33;29.83;;;6.60;99.90;;;;;;5142772;27;20043;-84
2021/05/02 06:03:29;;;;;;;46.08;31.35;;;6.60;99.90;;;;;;5119455;27;20130;-84
2021/05/02 06:05:55;;;;;;;54.40;36.55;;;6.50;99.90;;;;;;5137491;27;20046;-84
2021/05/02 06:08:21;;;;;;;44.75;30.48;;;6.60;99.90;;;;;;5119396;27;20138;-84
2021/05/02 06:10:47;;;;;;;42.58;28.95;;;6.50;99.90;;;;;;5137070;27;20447;-84
2021/05/02 06:13:18;;;;;;;37.38;27.45;;;6.50;99.90;;;;;;5119024;27;20090;-83
2021/05/02 06:15:45;;;;;;;41.38;28.85;;;6.50;99.90;;;;;;5118923;27;20051;-83
2021/05/02 06:18:12;;;;;;;40.03;28.13;;;6.50;99.90;;;;;;5118717;27;20143;-82
2021/05/02 06:20:38;;;;;;;61.80;34.22;;;6.50;99.90;;;;;;5123110;27;20459;-83
2021/05/02 06:23:04;;;;;;;36.47;25.50;;;6.60;99.90;;;;;;5122820;27;20071;-83
2021/05/02 06:25:31;;;;;;;51.88;26.10;;;6.60;99.90;;;;;;5122840;27;20070;-83
2021/05/02 06:27:59;;;;;;;42.45;28.38;;;6.60;99.90;;;;;;5118526;28;20074;-83
2021/05/02 06:30:27;;;;;;;45.13;31.10;;;6.70;99.90;;;;;;5104111;28;20049;-84
2021/05/02 06:32:53;;;;;;;47.83;32.13;;;6.70;99.90;;;;;;5123159;28;20096;-84
2021/05/02 06:35:20;;;;;;;35.22;24.73;;;6.80;99.90;;;;;;5103411;28;20107;-83
2021/05/02 06:37:46;;;;;;;33.35;24.27;;;7.00;99.90;;;;;;5102930;28;20052;-82
2021/05/02 06:40:12;;;;;;;37.25;27.90;;;7.00;99.90;;;;;;5102604;28;20567;-82
2021/05/02 06:42:39;;;;;;;36.08;26.85;;;7.00;99.90;;;;;;5106499;28;20050;-82
2021/05/02 06:45:06;;;;;;;37.03;26.48;;;7.20;99.90;;;;;;5107345;28;20043;-83
2021/05/02 06:47:33;;;;;;;34.25;24.88;;;7.30;99.90;;;;;;5104030;28;20043;-82
2021/05/02 06:49:59;;;;;;;35.97;24.27;;;7.40;99.90;;;;;;5105655;28;20067;-82
2021/05/02 06:52:25;;;;;;;32.63;24.90;;;7.40;99.90;;;;;;5106227;28;20071;-82
2021/05/02 06:54:53;;;;;;;33.78;25.48;;;7.50;99.90;;;;;;5105965;28;20502;-83
2021/05/02 06:57:19;;;;;;;31.67;24.20;;;7.60;99.90;;;;;;5106310;28;20047;-82
2021/05/02 06:59:45;;;;;;;29.67;23.75;;;7.70;99.90;;;;;;5099835;28;20081;-82
2021/05/02 07:02:12;;;;;;;31.73;22.60;;;7.90;99.90;;;;;;5101391;28;20073;-82
2021/05/02 07:04:38;;;;;;;29.80;23.15;;;7.90;99.90;;;;;;5100307;28;20047;-82
2021/05/02 07:07:05;;;;;;;30.42;22.48;;;8.00;99.90;;;;;;5099109;28;20071;-82
2021/05/02 07:09:32;;;;;;;29.02;21.40;;;8.10;99.90;;;;;;5098700;28;20502;-82
2021/05/02 07:11:59;;;;;;;26.98;20.13;;;8.20;99.90;;;;;;5099038;28;20048;-82
2021/05/02 07:14:25;;;;;;;25.20;18.90;;;8.10;99.90;;;;;;5099065;28;20131;-82
2021/05/02 07:16:51;;;;;;;27.27;20.58;;;8.20;99.90;;;;;;5140072;27;20050;-82
2021/05/02 07:19:20;;;;;;;26.35;20.30;;;8.20;99.90;;;;;;5122602;27;20039;-82
2021/05/02 07:21:47;;;;;;;27.90;21.83;;;8.10;99.90;;;;;;5118695;27;20111;-81
2021/05/02 07:24:16;;;;;;;22.58;19.42;;;8.30;99.90;;;;;;5114594;27;20043;-81
2021/05/02 07:26:43;;;;;;;26.92;19.33;;;8.50;99.90;;;;;;5138765;27;20126;-81
2021/05/02 07:29:09;;;;;;;25.73;21.23;;;8.70;99.90;;;;;;5121161;28;20510;-81
2021/05/02 07:31:35;;;;;;;21.63;18.90;;;8.70;99.90;;;;;;5144800;27;20100;-81
2021/05/02 07:34:02;;;;;;;21.17;17.88;;;8.90;99.90;;;;;;5127081;27;20047;-81
2021/05/02 07:36:28;;;;;;;23.85;17.77;;;9.10;99.90;;;;;;5124696;27;20414;-82
2021/05/02 07:38:55;;;;;;;23.17;17.33;;;9.20;99.90;;;;;;5123688;27;20070;-81
2021/05/02 07:41:21;;;;;;;19.33;15.65;;;9.40;99.90;;;;;;5122672;27;20498;-80
2021/05/02 07:43:47;;;;;;;16.15;14.45;;;9.60;99.90;;;;;;5123355;27;20054;-80
2021/05/02 07:46:14;;;;;;;14.82;13.13;;;9.80;99.90;;;;;;5123345;28;20075;-80
2021/05/02 07:48:40;;;;;;;14.88;13.10;;;10.00;99.90;;;;;;5124652;28;20411;-81
2021/05/02 07:51:07;;;;;;;15.15;13.35;;;10.30;99.90;;;;;;5121790;28;20047;-80
2021/05/02 07:53:33;;;;;;;14.48;12.10;;;10.60;99.90;;;;;;5145921;27;20054;-79
2021/05/02 07:55:59;;;;;;;13.00;11.48;;;11.30;99.90;;;;;;5128613;28;20076;-80
2021/05/02 07:58:26;;;;;;;11.65;10.25;;;11.70;99.90;;;;;;5128554;28;20052;-82
2021/05/02 08:00:53;;;;;;;12.35;10.75;;;12.20;99.90;;;;;;5129612;27;20141;-80
2021/05/02 08:03:19;;;;;;;10.00;8.98;;;12.60;99.90;;;;;;5146698;27;20050;-82
2021/05/02 08:05:46;;;;;;;12.25;9.95;;;12.70;99.90;;;;;;5148093;27;20069;-81
2021/05/02 08:08:12;;;;;;;9.50;8.25;;;13.10;99.90;;;;;;5129199;28;20542;-81
2021/05/02 08:10:39;;;;;;;10.20;8.85;;;12.90;99.90;;;;;;5147074;27;20103;-80
2021/05/02 08:13:05;;;;;;;10.02;8.82;;;13.10;99.90;;;;;;5148145;27;20054;-80
2021/05/02 08:15:31;;;;;;;9.63;8.52;;;12.30;99.90;;;;;;5127548;28;20058;-79
2021/05/02 08:17:58;;;;;;;11.20;9.52;;;11.70;99.90;;;;;;5146564;27;20051;-81
2021/05/02 08:20:25;;;;;;;10.18;9.13;;;11.20;99.90;;;;;;5126695;28;20047;-80
2021/05/02 08:22:52;;;;;;;13.95;9.55;;;10.90;99.90;;;;;;5146047;28;20505;-81
2021/05/02 08:25:19;;;;;;;10.70;9.43;;;10.90;99.90;;;;;;5127696;28;20047;-80
2021/05/02 08:27:47;;;;;;;10.77;9.48;;;11.10;99.90;;;;;;5146107;27;20047;-81
2021/05/02 08:30:14;;;;;;;10.07;9.05;;;11.00;99.90;;;;;;5125707;28;20043;-81
2021/05/02 08:32:40;;;;;;;12.10;9.75;;;10.70;99.90;;;;;;5147015;27;20051;-82
2021/05/02 08:35:07;;;;;;;11.55;9.52;;;10.40;99.90;;;;;;5128881;28;20093;-81
2021/05/02 08:37:33;;;;;;;12.10;9.65;;;10.20;99.90;;;;;;5147889;27;20051;-81
2021/05/02 08:40:01;;;;;;;12.52;9.35;;;10.10;99.90;;;;;;5142891;28;20043;-81
2021/05/02 08:42:27;;;;;;;11.60;9.98;;;10.00;99.90;;;;;;5143970;27;20043;-81
2021/05/02 08:44:53;;;;;;;12.65;9.80;;;9.70;99.90;;;;;;5123767;28;20044;-81
2021/05/02 08:47:20;;;;;;;11.18;9.80;;;9.40;99.90;;;;;;5123693;28;20413;-81
2021/05/02 08:49:46;;;;;;;11.57;9.75;;;9.30;99.90;;;;;;5143331;27;20077;-81
2021/05/02 08:52:13;;;;;;;11.82;10.60;;;9.40;99.90;;;;;;5124306;28;20050;-81
2021/05/02 08:54:40;;;;;;;12.30;10.52;;;9.50;99.90;;;;;;5122290;27;20047;-81
2021/05/02 08:57:06;;;;;;;11.02;9.68;;;9.50;99.90;;;;;;5141176;27;20047;-81
2021/05/02 08:59:33;;;;;;;18.20;15.20;;;9.70;99.90;;;;;;5122120;28;20065;-81
2021/05/02 09:01:59;;;;;;;12.63;11.27;;;10.00;99.90;;;;;;5122882;28;20054;-82
2021/05/02 09:04:26;;;;;;;11.38;9.73;;;10.10;99.90;;;;;;5141949;27;20047;-82
2021/05/02 09:06:53;;;;;;;10.23;9.23;;;10.20;99.90;;;;;;5122180;28;20149;-82
2021/05/02 09:09:19;;;;;;;12.00;9.95;;;10.20;99.90;;;;;;5122351;28;20079;-82
2021/05/02 09:11:48;;;;;;;12.07;9.65;;;10.00;99.90;;;;;;5120339;27;20100;-82
2021/05/02 09:14:18;;;;;;;14.35;10.90;;;9.70;99.90;;;;;;5124374;27;20462;-82
2021/05/02 09:16:56;;;;;;;12.35;10.73;;;9.20;99.90;;;;;;5126133;27;20047;-82
2021/05/02 09:19:32;;;;;;;14.48;11.68;;;8.80;99.90;;;;;;5126850;27;20075;-82
2021/05/02 09:22:12;;;;;;;12.43;11.20;;;8.40;99.90;;;;;;5125656;27;20051;-82
2021/05/02 09:24:39;;;;;;;11.57;10.35;;;8.00;99.90;;;;;;5141076;27;20067;-82
2021/05/02 09:27:13;;;;;;;14.50;11.02;;;7.90;99.90;;;;;;5123687;27;20074;-81
2021/05/02 09:29:43;;;;;;;9.90;8.65;;;7.90;99.90;;;;;;5123430;27;20055;-81
2021/05/02 09:32:12;;;;;;;11.43;9.13;;;8.00;99.90;;;;;;5123263;27;20085;-81
2021/05/02 09:34:49;;;;;;;15.20;11.27;;;8.00;99.90;;;;;;5122773;27;20058;-81
2021/05/02 09:37:15;;;;;;;11.48;9.40;;;8.10;99.90;;;;;;5140934;27;20084;-82
2021/05/02 09:39:47;;;;;;;10.50;9.43;;;8.40;99.90;;;;;;5141140;27;20071;-81
2021/05/02 09:42:21;;;;;;;11.35;8.77;;;8.50;99.90;;;;;;5141636;27;20047;-81
2021/05/02 09:44:55;;;;;;;11.07;9.90;;;8.90;99.90;;;;;;5123040;27;20051;-82
2021/05/02 09:47:34;;;;;;;10.30;9.25;;;9.30;99.90;;;;;;5140276;27;20087;-82
2021/05/02 09:50:14;;;;;;;9.10;8.18;;;9.70;99.90;;;;;;5121984;27;20047;-82
2021/05/02 09:52:48;;;;;;;9.43;8.05;;;9.70;99.90;;;;;;5120792;27;20558;-82
2021/05/02 09:55:39;;;;;;;12.07;8.98;;;9.50;99.90;;;;;;5121503;27;20054;-81
2021/05/02 09:58:08;;;;;;;9.77;8.40;;;9.50;99.90;;;;;;5120211;27;20071;-83
2021/05/02 10:00:39;;;;;;;9.95;7.82;;;9.50;99.90;;;;;;5126872;27;20079;-83
2021/05/02 10:03:10;;;;;;;10.50;8.07;;;9.60;99.90;;;;;;5125988;27;20054;-82
2021/05/02 10:05:53;;;;;;;11.43;8.27;;;9.90;99.90;;;;;;5144138;27;20031;-82
2021/05/02 10:08:20;;;;;;;9.43;8.25;;;10.10;99.90;;;;;;5125593;27;20081;-83
2021/05/02 10:10:47;;;;;;;9.45;8.55;;;10.40;99.90;;;;;;5125753;27;20055;-83
2021/05/02 10:13:14;;;;;;;9.82;8.70;;;10.60;99.90;;;;;;5142843;27;20093;-83
2021/05/02 10:15:40;;;;;;;9.40;8.15;;;10.90;99.90;;;;;;5125445;27;20065;-83
2021/05/02 10:18:06;;;;;;;9.80;8.27;;;10.80;99.90;;;;;;5144043;27;20077;-83
2021/05/02 10:20:32;;;;;;;8.40;7.60;;;10.70;99.90;;;;;;5124982;27;20076;-83
2021/05/02 10:23:01;;;;;;;8.68;7.85;;;10.30;99.90;;;;;;5145455;27;20043;-83
2021/05/02 10:25:27;;;;;;;8.35;7.50;;;9.80;99.90;;;;;;5125452;27;20470;-83
2021/05/02 10:27:54;;;;;;;9.70;8.70;;;9.40;99.90;;;;;;5144008;27;20065;-83
2021/05/02 10:30:22;;;;;;;10.45;9.27;;;9.00;99.90;;;;;;5125517;27;20143;-83
2021/05/02 10:32:59;;;;;;;13.90;10.98;;;8.70;99.90;;;;;;5125280;27;20078;-83
2021/05/02 10:35:45;;;;;;;10.57;9.48;;;8.40;99.90;;;;;;5124948;27;20103;-83
2021/05/02 10:38:11;;;;;;;13.48;11.52;;;8.30;99.90;;;;;;5125280;27;20051;-83
2021/05/02 10:40:39;;;;;;;13.05;10.95;;;8.00;99.90;;;;;;5142707;27;20047;-83
2021/05/02 10:43:25;;;;;;;12.10;10.85;;;7.90;99.90;;;;;;5123911;27;20071;-83
2021/05/02 10:45:51;;;;;;;12.38;11.07;;;7.70;99.90;;;;;;5124172;27;20148;-82
2021/05/02 10:48:24;;;;;;;15.88;12.40;;;7.60;99.90;;;;;;5124081;27;20126;-83
2021/05/02 10:50:53;;;;;;;12.32;10.70;;;7.60;99.90;;;;;;5123170;27;20054;-83
2021/05/02 10:53:24;;;;;;;15.05;12.45;;;7.80;99.90;;;;;;5123657;27;20087;-83
2021/05/02 10:56:03;;;;;;;11.75;10.48;;;8.10;99.90;;;;;;5124450;27;20082;-83
2021/05/02 10:58:38;;;;;;;11.60;10.27;;;8.30;99.90;;;;;;5123619;27;20119;-83
2021/05/02 11:01:10;;;;;;;10.57;9.55;;;8.60;99.90;;;;;;5140902;27;20077;-83
2021/05/02 11:03:38;;;;;;;15.98;10.15;;;8.90;99.90;;;;;;5124434;27;20100;-83
2021/05/02 11:06:10;;;;;;;10.05;8.80;;;9.40;99.90;;;;;;5143092;27;20055;-83
2021/05/02 11:09:00;;;;;;;11.48;10.32;;;9.70;99.90;;;;;;5141734;27;20047;-83
2021/05/02 11:11:31;;;;;;;10.00;9.10;;;10.20;99.90;;;;;;5123991;27;20146;-83
2021/05/02 11:14:10;;;;;;;10.55;9.52;;;10.40;99.90;;;;;;5144309;27;20456;-83
2021/05/02 11:16:41;;;;;;;13.07;9.23;;;10.60;99.90;;;;;;5124433;27;20051;-83
2021/05/02 11:19:09;;;;;;;32.78;20.20;;;10.70;99.90;;;;;;5123940;27;20043;-83
2021/05/02 11:22:10;;;;;;;29.58;17.10;;;10.40;99.90;;;;;;5123182;27;20048;-83
2021/05/02 11:24:39;;;;;;;149.77;65.75;;;10.70;99.90;;;;;;5141053;27;20434;-83
2021/05/02 11:27:14;;;;;;;12.73;9.85;;;10.80;99.90;;;;;;5122470;27;20043;-83
2021/05/02 11:35:05;;;;;;;8.55;7.40;;;12.30;99.90;;;;;;5139839;27;20141;-83
2021/05/02 11:37:44;;;;;;;7.40;6.28;;;12.30;99.90;;;;;;5141098;27;20051;-83
2021/05/02 11:40:28;;;;;;;8.75;7.30;;;12.20;99.90;;;;;;5122753;27;20717;-83
2021/05/02 11:42:57;;;;;;;8.63;7.78;;;12.10;99.90;;;;;;5123265;27;20067;-83
2021/05/02 11:45:42;;;;;;;6.97;6.30;;;12.30;99.90;;;;;;5122711;27;20062;-83
2021/05/02 11:48:21;;;;;;;7.70;6.20;;;12.50;99.90;;;;;;5123333;27;20502;-83
2021/05/02 11:50:49;;;;;;;6.30;5.80;;;12.90;99.90;;;;;;5121144;27;20069;-83
2021/05/02 11:53:30;;;;;;;5.57;5.07;;;13.20;99.90;;;;;;5119866;28;20082;-83
2021/05/02 11:55:56;;;;;;;5.78;5.38;;;12.90;99.90;;;;;;5139338;27;20458;-84
2021/05/02 11:58:22;;;;;;;5.55;5.07;;;12.50;99.90;;;;;;5124112;28;20057;-84
2021/05/02 12:00:52;;;;;;;6.72;5.50;;;12.20;99.90;;;;;;5123874;27;20092;-84
2021/05/02 12:03:32;;;;;;;6.85;5.55;;;12.10;99.90;;;;;;5123332;28;20065;-84
2021/05/02 12:05:58;;;;;;;5.22;4.82;;;12.20;99.90;;;;;;5123738;28;20092;-83
2021/05/02 12:08:26;;;;;;;6.35;5.45;;;12.40;99.90;;;;;;5141202;28;20047;-84
2021/05/02 12:10:58;;;;;;;5.47;4.97;;;12.80;99.90;;;;;;5121890;28;20111;-84
2021/05/02 12:13:32;;;;;;;5.05;4.68;;;13.10;99.90;;;;;;5122206;27;20079;-85
2021/05/02 12:16:12;;;;;;;5.10;4.60;;;12.70;99.90;;;;;;5122676;28;20043;-84
2021/05/02 12:18:53;;;;;;;4.53;4.22;;;13.10;99.90;;;;;;5120887;27;20133;-84
2021/05/02 12:21:30;;;;;;;4.95;4.03;;;13.20;99.90;;;;;;5121386;28;20047;-84
2021/05/02 12:24:12;;;;;;;6.45;4.53;;;13.20;99.90;;;;;;5109285;28;20127;-84
2021/05/02 12:26:48;;;;;;;4.85;4.45;;;12.90;99.90;;;;;;5100479;28;20065;-85
2021/05/02 12:29:28;;;;;;;4.88;4.47;;;12.40;99.90;;;;;;5101736;28;20047;-85
2021/05/02 12:32:23;;;;;;;4.97;4.53;;;11.40;99.90;;;;;;5099986;28;20048;-84
2021/05/02 12:34:56;;;;;;;4.82;4.40;;;10.50;99.90;;;;;;5102700;28;20130;-85
2021/05/02 12:37:24;;;;;;;4.77;4.23;;;9.90;99.90;;;;;;5117879;28;20055;-84
2021/05/02 12:40:06;;;;;;;4.90;4.50;;;9.70;99.90;;;;;;5099409;28;20055;-84
2021/05/02 12:42:45;;;;;;;4.53;4.22;;;9.70;99.90;;;;;;5100673;28;20047;-84
2021/05/02 12:45:23;;;;;;;8.93;8.02;;;9.90;99.90;;;;;;5099316;28;20050;-85
2021/05/02 12:47:50;;;;;;;12.18;10.07;;;10.30;99.90;;;;;;5102461;27;20050;-85
2021/05/02 12:50:18;;;;;;;10.75;9.18;;;10.90;99.90;;;;;;5140638;27;20398;-85
2021/05/02 12:52:55;;;;;;;6.18;5.57;;;11.20;99.90;;;;;;5122179;27;20111;-86
2021/05/02 12:55:31;;;;;;;4.38;4.07;;;11.30;99.90;;;;;;5100491;28;20108;-86